EW1334 Weather Reports


Display with metric or nautical units.
time (UTC)temp
F
wind
direction
speed
MPH
gust
MPH
rain 1hr
in
rain 24hr
in
rain mn
in
humidity
%
barometer
mb
20180721020932 59 265 0.0 0.0 0.00 0.00 0.00 97 1010.7
20180721015432 60 265 0.0 0.0 0.00 0.00 0.00 97 1010.5
20180721013933 60 265 0.0 0.0 0.00 0.00 0.00 97 1010.4
20180721012429 61 265 0.0 0.0 0.00 0.00 0.00 97 1010.3
20180721010925 61 265 0.0 0.0 0.00 0.00 0.00 97 1010.3
20180721005424 62 265 0.0 0.0 0.00 0.00 0.00 98 1010.3
20180721003924 61 265 0.0 1.0 0.00 0.00 0.00 97 1010.2
20180721002423 61 265 0.0 0.0 0.00 0.00 0.00 97 1010.1
20180721000922 61 265 0.0 0.0 0.00 0.00 0.00 97 1010.3
20180720235423 61 265 0.0 0.0 0.00 0.00 0.00 97 1010.2
20180720233918 62 265 0.0 0.0 0.00 0.00 0.00 97 1010.3
20180720232418 62 265 0.0 0.0 0.00 0.00 0.00 96 1010.2
20180720230919 62 265 0.0 0.0 0.00 0.00 0.00 96 1010.2
20180720225418 63 265 0.0 0.0 0.00 0.00 0.00 96 1010.2
20180720223917 63 265 0.0 0.0 0.00 0.00 0.00 96 1010.3
20180720222412 63 265 0.0 0.0 0.00 0.00 0.00 96 1010.3
20180720220910 63 265 0.0 0.0 0.00 0.00 0.00 95 1010.1
20180720215409 64 265 0.0 0.0 0.00 0.00 0.00 95 1010.2
20180720213909 64 265 0.0 0.0 0.00 0.00 0.00 94 1010.2
20180720212408 65 265 0.0 0.0 0.00 0.00 0.00 94 1010.2
20180720210908 65 265 0.0 0.0 0.00 0.00 0.00 94 1010.1
20180720205406 66 265 0.0 0.0 0.00 0.00 0.00 93 1010.2
20180720203905 66 265 0.0 0.0 0.00 0.00 0.00 93 1010.1
20180720202406 67 265 0.0 0.0 0.00 0.00 0.00 92 1010.0
20180720200903 67 267 0.0 3.0 0.00 0.00 0.00 92 1010.0
20180720195403 68 267 0.0 0.0 0.00 0.00 0.00 90 1009.8
20180720193902 68 267 0.0 0.0 0.00 0.00 0.00 89 1010.0
20180720192401 69 267 0.0 0.0 0.00 0.00 0.00 88 1010.0
20180720190900 69 267 0.0 0.0 0.00 0.00 0.00 86 1009.9
20180720185402 70 267 0.0 0.0 0.00 0.00 0.00 86 1009.8
20180720183902 71 267 0.0 0.0 0.00 0.00 0.00 84 1009.8
20180720182358 71 267 0.0 0.0 0.00 0.00 0.00 84 1009.8
20180720180858 71 267 0.0 2.0 0.00 0.00 0.00 84 1009.8
20180720175358 71 267 0.0 1.0 0.00 0.00 0.00 84 1009.9
20180720173859 71 360 0.0 0.0 0.00 0.00 0.00 84 1009.7
20180720172357 71 355 0.0 6.0 0.00 0.00 0.00 81 1009.8
20180720170900 73 5 3.0 12.0 0.00 0.00 0.00 75 1009.7
20180720165358 75 20 3.0 12.0 0.00 0.00 0.00 69 1009.4
20180720163855 76 43 4.0 10.0 0.00 0.00 0.00 68 1009.1
20180720162357 76 39 4.0 9.0 0.00 0.00 0.00 69 1009.1
20180720160957 76 59 2.0 7.0 0.00 0.00 0.00 68 1008.9
20180720155357 78 11 2.0 13.0 0.00 0.00 0.00 65 1008.8
20180720153856 82 341 5.0 12.0 0.00 0.00 0.00 55 1008.6
20180720152355 82 319 4.0 12.0 0.00 0.00 0.00 53 1008.3
20180720150853 82 261 3.0 13.0 0.00 0.00 0.00 54 1008.4
20180720145349 81 298 8.0 14.0 0.00 0.00 0.00 55 1008.4
20180720143852 82 350 7.0 16.0 0.00 0.00 0.00 52 1008.4
20180720142347 82 340 7.0 18.0 0.00 0.00 0.00 53 1008.5
20180720140847 82 294 11.0 17.0 0.00 0.00 0.00 53 1008.5
20180720135344 82 268 5.0 19.0 0.00 0.08 0.00 54 1008.6
20180720133842 82 309 9.0 16.0 0.00 0.08 0.00 54 1008.5
20180720132339 81 273 11.0 15.0 0.00 0.08 0.00 57 1008.5
20180720130840 80 321 7.0 13.0 0.00 0.08 0.00 60 1008.6
20180720125337 80 295 9.0 16.0 0.00 0.08 0.00 58 1008.6
20180720123837 81 307 11.0 17.0 0.00 0.08 0.00 58 1008.6
20180720122335 80 284 7.0 18.0 0.00 0.08 0.00 60 1008.7
20180720120835 81 248 6.0 13.0 0.00 0.08 0.00 61 1008.8
20180720115334 80 309 9.0 16.0 0.00 0.08 0.00 61 1008.9
20180720113830 80 336 5.0 12.0 0.00 0.08 0.00 61 1009.0
20180720112328 80 281 7.0 14.0 0.00 0.08 0.00 60 1009.1
20180720110826 79 277 1.0 10.0 0.00 0.08 0.00 71 1009.1
20180720105331 80 279 3.0 11.0 0.00 0.08 0.00 69 1009.2
20180720103822 79 294 3.0 9.0 0.00 0.08 0.00 71 1009.3
20180720102323 77 295 3.0 11.0 0.00 0.08 0.00 74 1009.4
20180720100822 76 257 6.0 14.0 0.00 0.08 0.00 76 1009.4
20180720095319 77 296 5.0 12.0 0.00 0.09 0.00 73 1009.4
20180720093817 77 279 6.0 14.0 0.00 0.09 0.00 70 1009.6
20180720092318 77 325 5.0 11.0 0.00 0.09 0.00 74 1009.5
20180720090815 77 265 4.0 12.0 0.00 0.09 0.00 76 1009.5
20180720085315 76 318 3.0 11.0 0.00 0.28 0.00 79 1009.5
20180720083805 75 284 1.0 13.0 0.00 0.28 0.00 78 1009.7
20180720082301 74 270 4.0 10.0 0.00 0.28 0.00 79 1009.7
20180720080802 74 290 6.0 12.0 0.00 0.28 0.00 81 1009.7
20180720075300 72 292 3.0 8.0 0.00 0.28 0.00 82 1009.8
20180720073752 71 273 5.0 11.0 0.00 0.28 0.00 85 1009.7
20180720072248 69 293 4.0 12.0 0.00 0.28 0.00 87 1009.8
20180720070745 69 38 6.0 11.0 0.00 0.28 0.00 87 1009.8
20180720065245 68 289 1.0 10.0 0.00 0.28 0.00 88 1009.8
20180720063739 67 298 3.0 8.0 0.00 0.28 0.00 89 1009.9
20180720062235 67 279 2.0 7.0 0.00 0.28 0.00 90 1009.9
20180720060734 67 292 3.0 7.0 0.00 0.28 0.00 91 1009.9
20180720055237 66 324 3.0 10.0 0.00 0.28 0.00 91 1009.8
20180720053732 66 289 3.0 9.0 0.00 0.28 0.00 92 1009.7
20180720052231 66 313 1.0 8.0 0.00 0.28 0.00 92 1009.7
20180720050730 66 294 4.0 10.0 0.00 0.28 0.00 93 1009.7
20180720045228 65 298 4.0 9.0 0.00 0.28 0.00 93 1009.7
20180720043726 65 297 1.0 8.0 0.00 0.28 0.00 94 1009.8
20180720042225 65 319 3.0 8.0 0.00 0.28 0.00 94 1009.7
20180720040721 65 320 0.0 9.0 0.00 0.28 0.00 95 1009.7
20180720035219 65 285 3.0 9.0 0.00 0.28 0.00 95 1009.7
20180720033719 65 298 0.0 5.0 0.00 0.28 0.00 95 1009.6
20180720032216 65 327 0.0 4.0 0.00 0.28 0.00 95 1009.6
20180720030717 65 327 1.0 8.0 0.00 0.28 0.00 96 1009.5
20180720025215 64 308 4.0 9.0 0.00 0.28 0.00 96 1009.6
20180720023716 64 300 0.0 8.0 0.00 0.28 0.00 96 1009.4
20180720022214 64 318 2.0 5.0 0.00 0.28 0.00 97 1009.5